createdAt,value
2018-10-09T00:02:30.277Z,30.10
2018-10-09T00:05:02.657Z,22.77
2018-10-09T00:07:35.049Z,25.00
2018-10-09T00:10:07.404Z,28.77
2018-10-09T00:12:39.790Z,32.33
2018-10-09T00:15:12.196Z,27.80
2018-10-09T00:17:44.589Z,29.40
2018-10-09T00:20:27.030Z,27.93
2018-10-09T00:23:00.320Z,26.33
2018-10-09T00:25:32.586Z,27.40
2018-10-09T00:28:04.947Z,27.77
2018-10-09T00:30:37.239Z,25.30
2018-10-09T00:33:09.474Z,28.03
2018-10-09T00:35:41.721Z,29.53
2018-10-09T00:38:13.992Z,35.07
2018-10-09T00:40:46.300Z,31.43
2018-10-09T00:43:18.580Z,32.30
2018-10-09T00:45:50.872Z,31.87
2018-10-09T00:48:23.185Z,35.00
2018-10-09T00:50:55.453Z,31.73
2018-10-09T00:53:27.730Z,31.83
2018-10-09T00:56:00.516Z,30.83
2018-10-09T00:58:33.007Z,32.87
2018-10-09T01:01:05.849Z,29.57
2018-10-09T01:03:38.197Z,34.90
2018-10-09T01:06:10.619Z,28.57
2018-10-09T01:08:43.006Z,34.80
2018-10-09T01:11:15.393Z,36.93
2018-10-09T01:13:47.694Z,34.53
2018-10-09T01:16:20.309Z,30.47
2018-10-09T01:18:52.593Z,34.93
2018-10-09T01:21:24.848Z,31.77
2018-10-09T01:23:57.215Z,34.87
2018-10-09T01:26:29.448Z,35.77
2018-10-09T01:29:01.713Z,32.27
2018-10-09T01:31:33.951Z,30.37
2018-10-09T01:34:06.427Z,32.77
2018-10-09T01:36:38.666Z,35.00
2018-10-09T01:39:10.994Z,37.70
2018-10-09T01:41:43.277Z,37.77
2018-10-09T01:44:15.596Z,34.47
2018-10-09T01:46:47.837Z,35.77
2018-10-09T01:49:20.221Z,27.97
2018-10-09T01:51:52.637Z,28.90
2018-10-09T01:54:25.045Z,35.17
2018-10-09T01:56:57.297Z,33.57
2018-10-09T01:59:29.657Z,35.27
2018-10-09T02:02:02.064Z,25.30
2018-10-09T02:04:34.397Z,28.87
2018-10-09T02:07:07.040Z,36.93
2018-10-09T02:09:39.324Z,31.73
2018-10-09T02:12:11.560Z,32.80
2018-10-09T02:14:43.822Z,38.13
2018-10-09T02:17:16.136Z,31.83
2018-10-09T02:19:48.399Z,33.03
2018-10-09T02:22:20.780Z,30.13
2018-10-09T02:24:53.037Z,30.30
2018-10-09T02:27:25.321Z,33.17
2018-10-09T02:29:57.592Z,32.70
2018-10-09T02:32:29.894Z,31.97
2018-10-09T02:35:02.294Z,31.73
2018-10-09T02:37:34.665Z,34.00
2018-10-09T02:40:07.094Z,40.63
2018-10-09T02:42:39.462Z,38.90
2018-10-09T02:45:11.717Z,37.90
2018-10-09T02:47:44.014Z,37.87
2018-10-09T02:50:16.290Z,36.47
2018-10-09T02:52:48.597Z,50.60
2018-10-09T02:55:20.851Z,49.80
2018-10-09T02:57:53.240Z,50.60
2018-10-09T03:00:25.721Z,47.23
2018-10-09T03:02:58.106Z,42.03
2018-10-09T03:05:30.348Z,46.63
2018-10-09T03:08:02.669Z,50.03
2018-10-09T03:10:34.928Z,41.53
2018-10-09T03:13:07.311Z,35.40
2018-10-09T03:15:39.560Z,45.27
2018-10-09T03:18:11.827Z,42.00
2018-10-09T03:20:44.266Z,42.83
2018-10-09T03:23:16.545Z,40.87
2018-10-09T03:25:48.921Z,34.90
2018-10-09T03:28:21.168Z,41.43
2018-10-09T03:30:53.473Z,36.97
2018-10-09T03:33:25.892Z,37.43
2018-10-09T03:35:58.225Z,32.30
2018-10-09T03:38:30.651Z,34.97
2018-10-09T03:41:02.905Z,35.33
2018-10-09T03:43:35.280Z,39.50
2018-10-09T03:46:07.616Z,39.33
2018-10-09T03:48:40.021Z,34.50
2018-10-09T03:51:12.238Z,32.70
2018-10-09T03:53:44.664Z,33.07
2018-10-09T03:56:17.177Z,36.07
2018-10-09T03:58:49.436Z,31.73
2018-10-09T04:01:21.736Z,36.53
2018-10-09T04:03:54.256Z,38.43
2018-10-09T04:06:26.845Z,36.33
2018-10-09T04:08:59.156Z,36.90
2018-10-09T04:11:31.408Z,44.07
2018-10-09T04:14:03.825Z,46.70
2018-10-09T04:16:36.087Z,52.83
2018-10-09T04:19:08.737Z,42.70
2018-10-09T04:21:41.032Z,36.30
2018-10-09T04:24:13.400Z,41.37
2018-10-09T04:26:45.724Z,45.80
2018-10-09T04:29:18.016Z,39.70
2018-10-09T04:31:50.328Z,39.53
2018-10-09T04:34:22.668Z,40.97
2018-10-09T04:36:54.976Z,38.37
2018-10-09T04:39:27.260Z,41.03
2018-10-09T04:41:59.569Z,48.00
2018-10-09T04:44:31.873Z,41.33
2018-10-09T04:47:04.132Z,44.30
2018-10-09T04:49:36.411Z,39.63
2018-10-09T04:52:08.888Z,47.73
2018-10-09T04:54:41.209Z,42.50
2018-10-09T04:57:13.561Z,42.07
2018-10-09T04:59:45.853Z,47.20
2018-10-09T05:02:18.141Z,43.93
2018-10-09T05:04:50.426Z,55.87
2018-10-09T05:07:22.733Z,50.47
2018-10-09T05:09:55.030Z,46.80
2018-10-09T05:12:27.325Z,46.10
2018-10-09T05:14:59.589Z,46.83
2018-10-09T05:17:31.880Z,46.87
2018-10-09T05:20:05.977Z,47.17
2018-10-09T05:22:38.692Z,41.67
2018-10-09T05:25:10.960Z,38.17
2018-10-09T05:27:43.261Z,42.33
2018-10-09T05:30:15.564Z,47.43
2018-10-09T05:32:47.812Z,51.03
2018-10-09T05:35:20.133Z,51.03
2018-10-09T05:37:52.553Z,54.17
2018-10-09T05:40:24.846Z,47.70
2018-10-09T05:42:57.098Z,51.20
2018-10-09T05:45:29.405Z,52.53
2018-10-09T05:48:01.657Z,50.80
2018-10-09T05:50:33.958Z,64.33
2018-10-09T05:53:06.260Z,50.97
2018-10-09T05:55:38.610Z,47.67
2018-10-09T05:58:10.914Z,48.50
2018-10-09T06:00:43.200Z,52.73
2018-10-09T06:03:15.548Z,43.27
2018-10-09T06:05:47.857Z,42.90
2018-10-09T06:08:20.162Z,53.57
2018-10-09T06:10:52.717Z,57.07
2018-10-09T06:13:25.888Z,49.70
2018-10-09T06:15:58.454Z,43.87
2018-10-09T06:18:30.708Z,49.13
2018-10-09T06:21:03.032Z,43.23
2018-10-09T06:23:35.580Z,45.93
2018-10-09T06:26:07.992Z,50.43
2018-10-09T06:28:40.309Z,45.30
2018-10-09T06:31:12.669Z,42.90
2018-10-09T06:33:45.125Z,47.20
2018-10-09T06:36:17.454Z,45.77
2018-10-09T06:38:49.853Z,48.23
2018-10-09T06:41:22.165Z,41.70
2018-10-09T06:43:54.461Z,43.90
2018-10-09T06:46:26.796Z,39.57
2018-10-09T06:48:59.138Z,39.03
2018-10-09T06:51:31.484Z,37.87
2018-10-09T06:54:03.893Z,31.73
2018-10-09T06:56:36.125Z,39.53
2018-10-09T06:59:08.512Z,41.47
2018-10-09T07:01:40.893Z,41.47
2018-10-09T07:04:13.166Z,40.90
2018-10-09T07:06:45.648Z,34.67
2018-10-09T07:09:18.184Z,39.27
2018-10-09T07:11:50.503Z,38.60
2018-10-09T07:14:22.813Z,36.73
2018-10-09T07:16:55.126Z,34.23
2018-10-09T07:19:27.396Z,39.40
2018-10-09T07:21:59.777Z,39.83
2018-10-09T07:24:32.018Z,41.40
2018-10-09T07:27:04.377Z,36.27
2018-10-09T07:29:36.677Z,41.87
2018-10-09T07:32:09.018Z,41.17
2018-10-09T07:34:41.279Z,40.87
2018-10-09T07:37:13.632Z,41.73
2018-10-09T07:39:45.889Z,40.78
2018-10-09T07:42:18.217Z,41.55
2018-10-09T07:44:50.514Z,42.20
2018-10-09T07:47:22.852Z,43.92
2018-10-09T07:49:55.128Z,42.25
2018-10-09T07:52:27.503Z,37.50
2018-10-09T07:54:59.790Z,40.52
2018-10-09T07:57:32.145Z,36.25
2018-10-09T08:00:04.597Z,38.88
2018-10-09T08:02:37.034Z,40.65
2018-10-09T08:05:09.401Z,41.33
2018-10-09T08:07:41.845Z,40.33
2018-10-09T08:10:14.396Z,37.13
2018-10-09T08:12:46.845Z,41.35
2018-10-09T08:15:19.152Z,36.90
2018-10-09T08:17:51.485Z,32.30
2018-10-09T08:20:23.780Z,38.33
2018-10-09T08:22:56.201Z,39.53
2018-10-09T08:25:28.413Z,38.90
2018-10-09T08:28:00.692Z,37.15
2018-10-09T08:30:32.981Z,35.95
2018-10-09T08:33:05.317Z,41.02
2018-10-09T08:35:37.634Z,39.10
2018-10-09T08:38:09.966Z,36.33
2018-10-09T08:40:42.263Z,33.67
2018-10-09T08:43:14.547Z,34.88
2018-10-09T08:45:46.868Z,32.73
2018-10-09T08:48:19.164Z,39.33
2018-10-09T08:50:51.433Z,36.90
2018-10-09T08:53:23.746Z,42.10
2018-10-09T08:55:56.046Z,32.70
2018-10-09T08:58:28.477Z,34.50
2018-10-09T09:01:00.840Z,38.28
2018-10-09T09:03:33.178Z,35.70
2018-10-09T09:06:05.768Z,37.10
2018-10-09T09:08:38.621Z,39.63
2018-10-09T09:11:10.978Z,37.55
2018-10-09T09:13:43.228Z,34.63
2018-10-09T09:16:15.549Z,33.67
2018-10-09T09:18:47.792Z,38.20
2018-10-09T09:21:20.124Z,33.70
2018-10-09T09:23:52.413Z,36.63
2018-10-09T09:26:24.719Z,38.95
2018-10-09T09:28:57.081Z,35.88
2018-10-09T09:31:29.777Z,33.90
2018-10-09T09:34:02.109Z,32.83
2018-10-09T09:36:34.436Z,35.00
2018-10-09T09:39:07.683Z,30.52
2018-10-09T09:41:39.969Z,33.53
2018-10-09T09:44:12.258Z,31.97
2018-10-09T09:46:44.566Z,29.95
2018-10-09T09:49:16.828Z,28.80
2018-10-09T09:51:49.146Z,26.77
2018-10-09T09:54:21.455Z,31.95
2018-10-09T09:56:53.841Z,32.20
2018-10-09T09:59:26.323Z,34.18
2018-10-09T10:01:58.386Z,26.95
2018-10-09T10:04:30.661Z,31.90
2018-10-09T10:07:03.078Z,31.57
2018-10-09T10:09:35.411Z,24.20
2018-10-09T10:12:07.762Z,30.35
2018-10-09T10:14:40.086Z,27.10
2018-10-09T10:17:12.351Z,29.15
2018-10-09T10:19:44.781Z,29.40
2018-10-09T10:22:17.040Z,26.12
2018-10-09T10:24:49.339Z,23.95
2018-10-09T10:27:21.623Z,27.35
2018-10-09T10:29:53.896Z,25.23
2018-10-09T10:32:26.208Z,29.85
2018-10-09T10:34:58.489Z,24.60
2018-10-09T10:37:30.803Z,26.55
2018-10-09T10:40:03.190Z,23.92
2018-10-09T10:42:35.548Z,24.75
2018-10-09T10:45:07.973Z,25.70
2018-10-09T10:47:40.250Z,26.40
2018-10-09T10:50:12.548Z,25.80
2018-10-09T10:52:44.919Z,26.48
2018-10-09T10:55:17.246Z,24.10
2018-10-09T10:57:49.562Z,22.82
2018-10-09T11:00:21.932Z,24.90
2018-10-09T11:02:54.237Z,26.15
2018-10-09T11:05:26.600Z,23.47
2018-10-09T11:07:58.932Z,23.83
2018-10-09T11:10:31.190Z,22.80
2018-10-09T11:13:03.554Z,23.27
2018-10-09T11:15:35.855Z,24.45
2018-10-09T11:18:08.845Z,20.57
2018-10-09T11:20:41.337Z,25.02
2018-10-09T11:23:13.862Z,26.77
2018-10-09T11:25:46.190Z,23.70
2018-10-09T11:28:18.434Z,24.00
2018-10-09T11:30:50.702Z,22.98
2018-10-09T11:33:23.137Z,24.67
2018-10-09T11:35:55.461Z,21.50
2018-10-09T11:38:27.823Z,24.10
2018-10-09T11:41:00.157Z,24.77
2018-10-09T11:43:32.476Z,19.87
2018-10-09T11:46:04.798Z,19.60
2018-10-09T11:48:37.173Z,20.85
2018-10-09T11:51:09.455Z,20.40
2018-10-09T11:53:41.785Z,20.27
2018-10-09T11:56:14.201Z,21.37
2018-10-09T11:58:46.575Z,22.15
2018-10-09T12:01:18.891Z,15.78
2018-10-09T12:03:51.207Z,16.23
2018-10-09T12:06:23.499Z,16.90
2018-10-09T12:08:55.832Z,13.40
2018-10-09T12:11:28.068Z,14.65
2018-10-09T12:14:00.421Z,16.52
2018-10-09T12:16:32.708Z,14.15
2018-10-09T12:19:05.051Z,16.80
2018-10-09T12:21:37.415Z,13.60
2018-10-09T12:24:09.745Z,15.45
2018-10-09T12:26:42.075Z,13.60
2018-10-09T12:29:14.450Z,13.03
2018-10-09T12:31:46.760Z,16.27
2018-10-09T12:34:19.115Z,15.20
2018-10-09T12:36:51.394Z,14.18
2018-10-09T12:39:23.771Z,14.03
2018-10-09T12:41:56.036Z,12.63
2018-10-09T12:44:28.401Z,14.75
2018-10-09T12:47:00.722Z,13.00
2018-10-09T12:49:33.057Z,12.98
2018-10-09T12:52:05.407Z,12.82
2018-10-09T12:54:37.688Z,11.63
2018-10-09T12:57:10.310Z,12.78
2018-10-09T12:59:42.585Z,14.20
2018-10-09T13:02:14.961Z,13.58
2018-10-09T13:04:47.299Z,12.05
2018-10-09T13:07:20.105Z,13.22
2018-10-09T13:09:52.409Z,12.78
2018-10-09T13:12:24.764Z,11.18
2018-10-09T13:14:57.087Z,11.53
2018-10-09T13:17:29.454Z,13.35
2018-10-09T13:20:01.779Z,10.88
2018-10-09T13:22:34.239Z,11.75
2018-10-09T13:25:06.732Z,11.40
2018-10-09T13:27:39.062Z,12.60
2018-10-09T13:30:11.398Z,10.85
2018-10-09T13:32:43.720Z,11.65
2018-10-09T13:35:15.993Z,12.05
2018-10-09T13:37:48.359Z,12.30
2018-10-09T13:40:20.662Z,12.15
2018-10-09T13:42:53.013Z,12.18
2018-10-09T13:45:25.321Z,12.60
2018-10-09T13:47:57.619Z,13.30
2018-10-09T13:50:30.026Z,13.32
2018-10-09T13:53:02.345Z,11.65
2018-10-09T13:55:34.686Z,13.28
2018-10-09T13:58:07.077Z,13.40
2018-10-09T14:00:39.528Z,12.88
2018-10-09T14:03:11.865Z,13.25
2018-10-09T14:05:44.132Z,13.88
2018-10-09T14:08:16.421Z,13.15
2018-10-09T14:10:48.781Z,14.03
2018-10-09T14:13:21.746Z,13.88
2018-10-09T14:15:54.101Z,14.03
2018-10-09T14:18:26.425Z,14.98
2018-10-09T14:20:58.739Z,13.85
2018-10-09T14:23:31.058Z,14.30
2018-10-09T14:26:03.399Z,14.70
2018-10-09T14:28:35.812Z,13.20
2018-10-09T14:31:08.342Z,13.85
2018-10-09T14:33:40.840Z,15.18
2018-10-09T14:36:13.289Z,12.80
2018-10-09T14:38:45.682Z,13.10
2018-10-09T14:41:18.021Z,14.53
2018-10-09T14:43:50.411Z,13.25
2018-10-09T14:46:22.739Z,14.55
2018-10-09T14:48:55.012Z,13.62
2018-10-09T14:51:27.556Z,14.38
2018-10-09T14:53:59.925Z,15.25
2018-10-09T14:56:32.347Z,16.70
2018-10-09T14:59:04.645Z,14.38
2018-10-09T15:01:37.063Z,17.75
2018-10-09T15:04:09.413Z,16.93
2018-10-09T15:06:41.755Z,17.35
2018-10-09T15:09:14.122Z,17.40
2018-10-09T15:11:46.500Z,16.00
2018-10-09T15:14:18.902Z,17.73
2018-10-09T15:16:51.272Z,16.42
2018-10-09T15:19:23.541Z,18.55
2018-10-09T15:21:55.866Z,17.85
2018-10-09T15:24:28.208Z,17.75
2018-10-09T15:27:00.498Z,19.02
2018-10-09T15:29:32.890Z,15.63
2018-10-09T15:32:05.317Z,15.95
2018-10-09T15:34:37.706Z,17.90
2018-10-09T15:37:10.167Z,18.70
2018-10-09T15:39:42.509Z,15.90
2018-10-09T15:42:14.828Z,19.23
2018-10-09T15:44:47.178Z,17.12
2018-10-09T15:47:19.532Z,22.98
2018-10-09T15:49:51.824Z,26.35
2018-10-09T15:52:24.157Z,29.40
2018-10-09T15:54:56.496Z,28.30
2018-10-09T15:57:28.847Z,32.25
2018-10-09T16:00:01.229Z,32.60
2018-10-09T16:02:33.591Z,32.85
2018-10-09T16:05:05.968Z,29.77
2018-10-09T16:07:38.386Z,31.55
2018-10-09T16:10:10.785Z,31.77
2018-10-09T16:12:43.239Z,33.15
2018-10-09T16:15:15.853Z,33.63
2018-10-09T16:17:48.153Z,35.33
2018-10-09T16:20:20.466Z,35.25
2018-10-09T16:22:53.043Z,36.53
2018-10-09T16:25:25.378Z,33.88
2018-10-09T16:27:57.717Z,35.60
2018-10-09T16:30:30.058Z,35.00
2018-10-09T16:33:02.428Z,37.63
2018-10-09T16:35:34.841Z,35.60
2018-10-09T16:38:07.187Z,29.12
2018-10-09T16:40:39.637Z,33.28
2018-10-09T16:43:12.037Z,37.80
2018-10-09T16:45:44.340Z,34.27
2018-10-09T16:48:16.710Z,38.17
2018-10-09T16:50:49.046Z,36.98
2018-10-09T16:53:21.471Z,32.78
2018-10-09T16:55:53.709Z,37.75
2018-10-09T16:58:26.083Z,34.05
2018-10-09T17:00:58.398Z,34.85
2018-10-09T17:03:30.781Z,31.37
2018-10-09T17:06:03.279Z,31.95
2018-10-09T17:08:36.097Z,26.30
2018-10-09T17:11:08.445Z,28.52
2018-10-09T17:13:40.888Z,30.48
2018-10-09T17:16:13.298Z,28.90
2018-10-09T17:18:45.713Z,36.55
2018-10-09T17:21:18.042Z,27.32
2018-10-09T17:23:50.545Z,26.55
2018-10-09T17:26:22.852Z,31.93
2018-10-09T17:28:55.216Z,25.48
2018-10-09T17:31:27.560Z,27.95
2018-10-09T17:33:59.950Z,36.42
2018-10-09T17:36:32.270Z,29.00
2018-10-09T17:39:07.464Z,29.05
2018-10-09T17:41:40.021Z,34.25
2018-10-09T17:44:12.402Z,29.12
2018-10-09T17:46:44.827Z,34.58
2018-10-09T17:49:17.268Z,25.17
2018-10-09T17:51:49.922Z,27.42
2018-10-09T17:54:22.301Z,30.90
2018-10-09T17:56:54.630Z,34.27
2018-10-09T17:59:27.132Z,31.00
2018-10-09T18:01:59.469Z,29.75
2018-10-09T18:04:31.896Z,27.20
2018-10-09T18:07:04.422Z,34.85
2018-10-09T18:09:36.862Z,34.33
2018-10-09T18:12:09.203Z,35.00
2018-10-09T18:14:41.738Z,35.00
2018-10-09T18:17:14.133Z,28.05
2018-10-09T18:19:46.539Z,26.73
2018-10-09T18:22:19.098Z,22.98
2018-10-09T18:24:51.721Z,31.05
2018-10-09T18:27:24.064Z,33.30
2018-10-09T18:29:56.485Z,35.45
2018-10-09T18:32:28.999Z,27.90
2018-10-09T18:35:01.292Z,29.37
2018-10-09T18:37:33.753Z,33.42
2018-10-09T18:40:06.589Z,26.97
2018-10-09T18:42:39.297Z,32.28
2018-10-09T18:45:11.647Z,32.78
2018-10-09T18:47:44.818Z,24.32
2018-10-09T18:50:17.251Z,27.90
2018-10-09T18:52:49.820Z,26.62
2018-10-09T18:55:22.180Z,25.68
2018-10-09T18:57:54.651Z,32.58
2018-10-09T19:00:26.951Z,29.65
2018-10-09T19:02:59.374Z,29.98
2018-10-09T19:05:31.743Z,29.55
2018-10-09T19:08:04.154Z,31.40
2018-10-09T19:10:36.654Z,25.93
2018-10-09T19:13:09.266Z,28.83
2018-10-09T19:15:41.641Z,24.17
2018-10-09T19:18:13.987Z,30.63
2018-10-09T19:20:46.457Z,30.27
2018-10-09T19:23:18.773Z,29.43
2018-10-09T19:25:51.293Z,24.47
2018-10-09T19:28:23.698Z,28.13
2018-10-09T19:30:56.171Z,37.57
2018-10-09T19:33:28.669Z,31.93
2018-10-09T19:36:01.171Z,33.07
2018-10-09T19:38:33.704Z,32.03
2018-10-09T19:41:06.882Z,28.80
2018-10-09T19:43:39.296Z,26.60
2018-10-09T19:46:11.904Z,28.47
2018-10-09T19:48:44.498Z,34.93
2018-10-09T19:51:17.101Z,31.53
2018-10-09T19:53:49.487Z,31.53
2018-10-09T19:56:21.816Z,31.23
2018-10-09T19:58:54.434Z,28.10
2018-10-09T20:01:26.817Z,30.13
2018-10-09T20:03:59.242Z,30.33
2018-10-09T20:06:32.030Z,34.63
2018-10-09T20:09:08.211Z,34.20
2018-10-09T20:11:40.642Z,34.00
2018-10-09T20:14:13.823Z,31.53
2018-10-09T20:16:46.499Z,36.60
2018-10-09T20:19:18.996Z,36.27
2018-10-09T20:21:51.363Z,35.67
2018-10-09T20:24:23.709Z,33.97
2018-10-09T20:26:56.144Z,30.33
2018-10-09T20:29:28.479Z,32.97
2018-10-09T20:32:00.920Z,31.77
2018-10-09T20:34:33.308Z,32.40
2018-10-09T20:37:06.141Z,31.17
2018-10-09T20:39:38.602Z,34.37
2018-10-09T20:42:11.063Z,33.30
2018-10-09T20:44:43.534Z,35.73
2018-10-09T20:47:20.370Z,35.10
2018-10-09T20:49:52.703Z,30.20
2018-10-09T20:52:25.025Z,32.57
2018-10-09T20:54:57.357Z,35.03
2018-10-09T20:57:29.653Z,35.27
2018-10-09T21:00:02.506Z,35.87
2018-10-09T21:02:34.943Z,41.23
2018-10-09T21:05:07.300Z,37.07
2018-10-09T21:07:39.713Z,30.20
2018-10-09T21:10:12.018Z,40.10
2018-10-09T21:12:44.363Z,40.93
2018-10-09T21:15:16.682Z,32.80
2018-10-09T21:17:49.073Z,38.53
2018-10-09T21:20:21.391Z,34.50
2018-10-09T21:22:53.664Z,30.23
2018-10-09T21:25:26.017Z,36.50
2018-10-09T21:27:58.393Z,36.13
2018-10-09T21:30:30.742Z,33.43
2018-10-09T21:33:03.156Z,36.27
2018-10-09T21:35:35.777Z,38.93
2018-10-09T21:38:08.079Z,34.23
2018-10-09T21:40:40.399Z,38.33
2018-10-09T21:43:12.670Z,35.93
2018-10-09T21:45:45.006Z,35.80
2018-10-09T21:48:17.286Z,36.63
2018-10-09T21:50:49.607Z,35.60
2018-10-09T21:53:22.013Z,35.50
2018-10-09T21:55:54.326Z,31.10
2018-10-09T21:58:26.630Z,38.30
2018-10-09T22:01:12.391Z,38.80
2018-10-09T22:03:44.689Z,31.77
2018-10-09T22:06:17.147Z,39.97
2018-10-09T22:08:49.449Z,33.50
2018-10-09T22:11:21.793Z,35.90
2018-10-09T22:13:54.085Z,36.23
2018-10-09T22:16:26.450Z,37.27
2018-10-09T22:18:58.805Z,36.83
2018-10-09T22:21:31.141Z,43.00
2018-10-09T22:24:03.481Z,43.87
2018-10-09T22:26:35.901Z,45.70
2018-10-09T22:29:08.222Z,45.00
2018-10-09T22:31:40.550Z,34.60
2018-10-09T22:34:12.862Z,42.43
2018-10-09T22:36:45.170Z,33.70
2018-10-09T22:39:17.497Z,45.27
2018-10-09T22:41:49.960Z,44.87
2018-10-09T22:44:22.271Z,37.50
2018-10-09T22:46:54.661Z,36.70
2018-10-09T22:49:27.079Z,37.67
2018-10-09T22:51:59.392Z,36.47
2018-10-09T22:54:31.673Z,38.87
2018-10-09T22:57:03.992Z,39.77
2018-10-09T22:59:36.710Z,39.83
2018-10-09T23:02:09.056Z,40.30
2018-10-09T23:04:41.454Z,40.40
2018-10-09T23:07:13.766Z,32.13
2018-10-09T23:09:46.121Z,37.67
2018-10-09T23:12:18.397Z,41.80
2018-10-09T23:14:50.692Z,35.57
2018-10-09T23:17:22.973Z,33.83
2018-10-09T23:19:55.243Z,40.40
2018-10-09T23:22:27.499Z,43.80
2018-10-09T23:24:59.750Z,40.43
2018-10-09T23:27:32.095Z,34.07
2018-10-09T23:30:05.701Z,37.23
2018-10-09T23:32:38.116Z,35.00
2018-10-09T23:35:10.574Z,34.47
2018-10-09T23:37:43.125Z,36.10
2018-10-09T23:40:15.474Z,30.87
2018-10-09T23:42:47.851Z,27.90
2018-10-09T23:45:20.048Z,34.77
2018-10-09T23:47:57.682Z,36.03
2018-10-09T23:50:29.961Z,37.37
2018-10-09T23:53:02.233Z,32.17
2018-10-09T23:55:34.816Z,32.80
2018-10-09T23:58:07.361Z,35.00
